FGSL

Details ICAO FGSL (SSG)
Name MALABO
Region Equatorial Guinea
Timezone Africa/Malabo (UTC+1.0)
Plans Departing 103
Arriving 73
Stats Elevation 76 ft / 23 m (AMSL)
Location 3.755267° 8.708717°
Runways 1
Magnetic Variation 1.365° W
Sunrise 2018-05-27 05:14:19 UTC / 2018-05-27 06:14:19 Local
Sunset 2018-05-27 17:33:12 UTC / 2018-05-27 18:33:12 Local
Advertisement - Login to hide

Runways

ID Width Length Bearing (true) Bearing (mag) Surface Threshold Offset Overrun Length
05 151 ft / 46 m 9,642 ft / 2,939 m 41.72° 43.08° Concrete 0 ft / 0 m 0 ft / 0 m
23 151 ft / 46 m 9,642 ft / 2,939 m 221.72° 223.08° Concrete 0 ft / 0 m 161 ft / 49 m

Approach Navaids

Runway Type Ident Frequency Range Bearing (true) Bearing (mag) Slope Elevation
23 Localiser MBO 109.70 MHz 18 nm / 33 km 221.76° 223.13° - 76 ft / 23 m (AMSL)

Map

Weather


0- 5 10 15 20 25 30 35+ Temperature / ° C

Clouds and Precipitation
Forecast for 2018-05-27 12:00 UTC. Updated 3 hours ago

Ground ~20,000 ft ~40,000 ft Winds

METAR

FGSL 271300Z 20006KT 9999 TS SCT010 FEW020CB 26/23 Q1013 NOSIG

TAF

TAF FGSL 271100Z 2712/2818 24008KT 9999 TS SCT012 FEW020CB TEMPO 2712/2717 4000 TSRA BKN008 FEW018CB BECMG 2717/2719 NSW TEMPO 2803/2808 TS BKN008 FEW018CB

Frequencies

Tower 118.10 MHz TWR
Tower 128.30 MHz TWR
Warning: Do not use this data for real-world aviation or navigation. No guarantee of current accuracy is given.